createdAt,value
2022-09-23T01:13:41.107Z,8.43
2022-09-23T01:15:19.220Z,7.40
2022-09-23T01:16:57.311Z,8.90
2022-09-23T01:18:39.023Z,7.68
2022-09-23T01:20:29.000Z,8.20
2022-09-23T01:22:07.055Z,8.18
2022-09-23T01:24:20.920Z,6.97
2022-09-23T01:26:00.307Z,7.95
2022-09-23T01:27:41.574Z,6.97
2022-09-23T01:29:51.042Z,6.68
2022-09-23T01:31:41.189Z,7.53
2022-09-23T01:33:21.160Z,6.82
2022-09-23T01:35:13.340Z,6.82
2022-09-23T01:37:08.325Z,7.97
2022-09-23T01:38:45.305Z,7.60
2022-09-23T01:40:18.397Z,7.57
2022-09-23T01:43:47.260Z,7.65
2022-09-23T01:45:27.864Z,8.30
2022-09-23T01:47:11.198Z,6.57
2022-09-23T01:48:47.718Z,6.95
2022-09-23T01:50:41.827Z,6.82
2022-09-23T01:52:33.265Z,8.05
2022-09-23T01:54:12.003Z,7.93
2022-09-23T01:55:51.088Z,7.13
2022-09-23T01:57:39.567Z,7.88
2022-09-23T01:59:26.668Z,7.90
2022-09-23T02:01:01.996Z,6.80
2022-09-23T02:02:37.009Z,8.23
2022-09-23T02:04:13.748Z,7.53
2022-09-23T02:05:51.203Z,7.10
2022-09-23T02:07:59.675Z,8.40
2022-09-23T02:09:41.209Z,7.82
2022-09-23T02:11:15.864Z,6.90
2022-09-23T02:12:50.243Z,7.60
2022-09-23T02:14:23.487Z,7.93
2022-09-23T02:15:58.772Z,7.97
2022-09-23T02:17:37.586Z,6.65
2022-09-23T02:19:17.063Z,6.78
2022-09-23T02:20:51.708Z,7.32
2022-09-23T02:22:30.462Z,8.48
2022-09-23T02:24:15.407Z,9.60
2022-09-23T02:25:59.602Z,7.72
2022-09-23T02:27:40.179Z,7.30
2022-09-23T02:29:20.871Z,7.20
2022-09-23T02:31:17.469Z,7.32
2022-09-23T02:32:53.007Z,7.07
2022-09-23T02:34:35.723Z,7.15
2022-09-23T02:36:13.645Z,6.82
2022-09-23T02:38:07.325Z,7.32
2022-09-23T02:40:03.333Z,7.65
2022-09-23T02:42:14.500Z,6.57
2022-09-23T02:43:59.928Z,7.40
2022-09-23T02:45:32.274Z,9.93
2022-09-23T02:47:04.312Z,6.70
2022-09-23T02:48:42.618Z,8.75
2022-09-23T02:50:14.708Z,7.20
2022-09-23T02:51:47.069Z,7.60
2022-09-23T02:53:19.130Z,6.85
2022-09-23T02:54:52.442Z,6.63
2022-09-23T02:56:24.818Z,5.68
2022-09-23T02:57:57.146Z,5.82
2022-09-23T02:59:29.804Z,7.00
2022-09-23T03:01:22.975Z,7.07
2022-09-23T03:03:20.065Z,6.63
2022-09-23T03:04:58.903Z,7.30
2022-09-23T03:06:58.071Z,6.97
2022-09-23T03:08:44.472Z,6.65
2022-09-23T03:10:38.385Z,7.70
2022-09-23T03:12:16.449Z,6.95
2022-09-23T03:13:57.028Z,7.78
2022-09-23T03:15:52.060Z,6.50
2022-09-23T03:17:35.400Z,7.60
2022-09-23T03:19:41.773Z,7.57
2022-09-23T03:21:20.575Z,6.88
2022-09-23T03:22:56.847Z,6.43
2022-09-23T03:24:31.780Z,7.90
2022-09-23T03:26:31.732Z,8.63
2022-09-23T03:28:04.425Z,6.50
2022-09-23T03:29:37.301Z,6.47
2022-09-23T03:31:10.844Z,7.00
2022-09-23T03:34:23.214Z,6.82
2022-09-23T03:36:18.449Z,6.90
2022-09-23T03:37:57.271Z,7.65
2022-09-23T03:39:37.395Z,6.57
2022-09-23T03:41:12.347Z,7.55
2022-09-23T03:42:44.498Z,8.13
2022-09-23T03:44:17.715Z,6.13
2022-09-23T03:45:54.084Z,6.78
2022-09-23T03:47:27.749Z,6.95
2022-09-23T03:49:29.334Z,6.88
2022-09-23T03:51:18.378Z,7.35
2022-09-23T03:52:50.992Z,6.55
2022-09-23T03:54:23.254Z,8.40
2022-09-23T03:55:55.391Z,6.18
2022-09-23T03:57:27.477Z,6.50
2022-09-23T03:58:59.548Z,7.28
2022-09-23T04:00:31.618Z,6.15
2022-09-23T04:02:04.881Z,7.03
2022-09-23T04:03:36.894Z,7.57
2022-09-23T04:05:12.442Z,7.88
2022-09-23T04:06:44.708Z,5.78
2022-09-23T04:08:16.779Z,7.00
2022-09-23T04:09:48.774Z,6.28
2022-09-23T04:11:20.783Z,6.53
2022-09-23T04:12:52.822Z,6.10
2022-09-23T04:14:24.900Z,6.85
2022-09-23T04:15:56.940Z,6.18
2022-09-23T04:17:29.263Z,7.53
2022-09-23T04:19:01.375Z,7.45
2022-09-23T04:20:33.401Z,5.85
2022-09-23T04:22:05.929Z,6.50
2022-09-23T04:23:38.029Z,7.93
2022-09-23T04:25:10.758Z,7.97
2022-09-23T04:26:43.376Z,7.35
2022-09-23T04:28:15.791Z,7.70
2022-09-23T04:29:47.820Z,7.28
2022-09-23T04:31:20.055Z,6.85
2022-09-23T04:32:53.541Z,7.13
2022-09-23T04:35:57.624Z,7.72
2022-09-23T04:37:29.916Z,9.90
2022-09-23T04:39:02.200Z,7.38
2022-09-23T04:40:34.607Z,6.80
2022-09-23T04:42:07.567Z,7.53
2022-09-23T04:43:39.967Z,6.05
2022-09-23T04:45:11.975Z,7.00
2022-09-23T04:46:48.436Z,5.88
2022-09-23T04:48:20.495Z,7.68
2022-09-23T04:49:55.575Z,7.18
2022-09-23T04:51:31.416Z,7.05
2022-09-23T04:53:04.269Z,7.53
2022-09-23T04:54:37.119Z,7.07
2022-09-23T04:56:13.259Z,7.38
2022-09-23T04:57:45.333Z,8.48
2022-09-23T04:59:17.439Z,7.88
2022-09-23T05:00:49.626Z,7.47
2022-09-23T05:02:22.047Z,11.07
2022-09-23T05:03:56.673Z,7.57
2022-09-23T05:05:29.771Z,7.07
2022-09-23T05:07:03.432Z,7.75
2022-09-23T05:08:36.212Z,7.38
2022-09-23T05:10:08.617Z,7.60
2022-09-23T05:11:40.725Z,7.15
2022-09-23T05:13:12.803Z,7.22
2022-09-23T05:14:44.799Z,8.27
2022-09-23T05:16:17.276Z,7.07
2022-09-23T05:17:49.643Z,8.55
2022-09-23T05:19:23.993Z,8.40
2022-09-23T05:20:56.238Z,7.00
2022-09-23T05:22:30.291Z,8.32
2022-09-23T05:24:02.857Z,8.23
2022-09-23T05:25:38.323Z,9.43
2022-09-23T05:27:10.534Z,9.95
2022-09-23T05:28:42.627Z,9.32
2022-09-23T05:30:14.788Z,8.20
2022-09-23T05:31:46.953Z,8.23
2022-09-23T05:33:19.323Z,9.57
2022-09-23T05:34:51.383Z,10.25
2022-09-23T05:36:24.266Z,10.20
2022-09-23T05:37:56.707Z,10.82
2022-09-23T05:39:29.900Z,9.80
2022-09-23T05:41:11.428Z,11.60
2022-09-23T05:42:43.834Z,10.27
2022-09-23T05:44:16.230Z,9.52
2022-09-23T05:45:48.519Z,10.75
2022-09-23T05:47:20.916Z,10.57
2022-09-23T05:48:53.130Z,9.48
2022-09-23T05:50:25.199Z,9.50
2022-09-23T05:51:57.224Z,8.18
2022-09-23T05:53:30.381Z,8.88
2022-09-23T05:55:02.985Z,9.60
2022-09-23T05:56:35.474Z,7.43
2022-09-23T05:58:07.520Z,8.55
2022-09-23T05:59:40.089Z,7.75
2022-09-23T06:01:14.607Z,8.57
2022-09-23T06:02:49.346Z,7.65
2022-09-23T06:04:21.513Z,7.55
2022-09-23T06:05:54.486Z,9.07
2022-09-23T06:07:26.901Z,7.68
2022-09-23T06:08:59.759Z,7.78
2022-09-23T06:10:32.084Z,7.95
2022-09-23T06:12:05.182Z,8.20
2022-09-23T06:13:38.506Z,8.18
2022-09-23T06:15:11.168Z,9.15
2022-09-23T06:16:43.466Z,8.52
2022-09-23T06:18:15.433Z,7.78
2022-09-23T06:19:47.437Z,7.70
2022-09-23T06:21:19.881Z,9.18
2022-09-23T06:22:55.293Z,7.38
2022-09-23T06:24:31.363Z,7.80
2022-09-23T06:26:05.751Z,8.15
2022-09-23T06:27:37.753Z,9.10
2022-09-23T06:29:14.861Z,7.18
2022-09-23T06:30:47.651Z,6.57
2022-09-23T06:32:20.351Z,6.63
2022-09-23T06:34:01.558Z,7.32
2022-09-23T06:35:36.838Z,7.97
2022-09-23T06:37:17.313Z,7.22
2022-09-23T06:38:50.667Z,8.70
2022-09-23T06:40:23.137Z,8.82
2022-09-23T06:41:55.596Z,10.70
2022-09-23T06:43:28.113Z,10.43
2022-09-23T06:45:00.585Z,8.98
2022-09-23T06:46:32.787Z,10.68
2022-09-23T06:48:06.511Z,8.07
2022-09-23T06:49:38.938Z,8.77
2022-09-23T06:51:19.319Z,9.63
2022-09-23T06:52:56.484Z,11.20
2022-09-23T06:54:29.368Z,8.68
2022-09-23T06:56:11.727Z,8.40
2022-09-23T06:57:43.789Z,7.90
2022-09-23T06:59:17.354Z,9.52
2022-09-23T07:00:49.494Z,10.10
2022-09-23T07:02:21.810Z,10.48
2022-09-23T07:03:54.568Z,10.82
2022-09-23T07:05:26.839Z,9.75
2022-09-23T07:06:59.153Z,11.00
2022-09-23T07:08:31.831Z,10.13
2022-09-23T07:10:09.255Z,9.00
2022-09-23T07:11:41.589Z,10.30
2022-09-23T07:13:16.303Z,9.50
2022-09-23T07:14:48.930Z,9.23
2022-09-23T07:16:21.709Z,9.13
2022-09-23T07:17:53.895Z,9.95
2022-09-23T07:19:26.508Z,8.70
2022-09-23T07:21:06.851Z,9.43
2022-09-23T07:22:39.445Z,9.38
2022-09-23T07:24:11.678Z,9.98
2022-09-23T07:25:44.397Z,9.70
2022-09-23T07:27:19.920Z,13.15
2022-09-23T07:28:57.006Z,23.75
2022-09-23T07:30:29.094Z,14.45
2022-09-23T07:32:11.849Z,13.25
2022-09-23T07:33:45.777Z,7.68
2022-09-23T07:35:18.018Z,7.13
2022-09-23T07:36:50.670Z,6.78
2022-09-23T07:38:26.523Z,9.90
2022-09-23T07:39:58.867Z,10.25
2022-09-23T07:41:32.504Z,8.00
2022-09-23T07:43:05.828Z,7.95
2022-09-23T07:44:38.091Z,8.00
2022-09-23T07:46:14.580Z,7.07
2022-09-23T07:47:46.848Z,6.78
2022-09-23T07:49:19.155Z,6.35
2022-09-23T07:50:51.372Z,6.75
2022-09-23T07:52:23.605Z,6.00
2022-09-23T07:53:56.116Z,5.53
2022-09-23T07:55:28.179Z,6.00
2022-09-23T07:57:00.786Z,6.50
2022-09-23T07:58:34.330Z,6.40
2022-09-23T08:00:07.066Z,6.68
2022-09-23T08:01:42.038Z,9.43
2022-09-23T08:03:15.446Z,6.32
2022-09-23T08:06:19.770Z,7.43
2022-09-23T08:07:52.493Z,8.13
2022-09-23T08:09:28.283Z,6.65
2022-09-23T08:11:08.869Z,5.82
2022-09-23T08:12:41.472Z,4.65
2022-09-23T08:14:14.527Z,5.22
2022-09-23T08:15:53.286Z,7.75
2022-09-23T08:17:27.820Z,6.93
2022-09-23T08:18:59.960Z,6.10
2022-09-23T08:20:48.253Z,8.35
2022-09-23T08:22:21.122Z,7.55
2022-09-23T08:23:53.350Z,7.28
2022-09-23T08:25:26.060Z,5.97
2022-09-23T08:26:58.392Z,5.70
2022-09-23T08:28:31.552Z,6.40
2022-09-23T08:30:04.087Z,5.20
2022-09-23T08:31:36.745Z,6.63
2022-09-23T08:33:09.057Z,4.32
2022-09-23T08:34:42.027Z,4.65
2022-09-23T08:36:14.485Z,5.07
2022-09-23T08:37:46.829Z,4.30
2022-09-23T08:39:20.650Z,4.07
2022-09-23T08:40:53.235Z,4.68
2022-09-23T08:42:32.947Z,6.50
2022-09-23T08:44:13.433Z,8.10
2022-09-23T08:45:46.439Z,6.53
2022-09-23T08:47:54.014Z,5.05
2022-09-23T08:49:33.840Z,5.82
2022-09-23T08:51:08.380Z,4.05
2022-09-23T08:52:51.054Z,6.57
2022-09-23T08:54:25.110Z,6.63
2022-09-23T08:55:59.742Z,6.78
2022-09-23T08:58:25.055Z,7.20
2022-09-23T08:59:58.394Z,6.80
2022-09-23T09:01:48.227Z,4.20
2022-09-23T09:03:24.245Z,5.32
2022-09-23T09:05:04.077Z,4.32
2022-09-23T09:06:53.072Z,5.28
2022-09-23T09:08:31.824Z,3.58
2022-09-23T09:10:23.382Z,5.32
2022-09-23T09:12:04.352Z,4.78
2022-09-23T09:13:44.324Z,4.55
2022-09-23T09:15:27.867Z,5.22
2022-09-23T09:17:08.764Z,5.60
2022-09-23T09:18:51.425Z,4.30
2022-09-23T09:20:55.525Z,4.38
2022-09-23T09:22:49.564Z,3.63
2022-09-23T09:24:40.758Z,4.25
2022-09-23T09:26:18.917Z,3.88
2022-09-23T09:27:52.429Z,3.35
2022-09-23T09:29:35.735Z,4.63
2022-09-23T09:33:04.835Z,5.05
2022-09-23T09:34:56.595Z,5.32
2022-09-23T09:36:42.943Z,5.18
2022-09-23T09:38:15.866Z,4.00
2022-09-23T09:39:48.171Z,5.88
2022-09-23T09:41:25.055Z,4.82
2022-09-23T09:42:57.438Z,4.15
2022-09-23T09:44:50.367Z,3.80
2022-09-23T09:46:50.359Z,3.95
2022-09-23T09:48:29.792Z,4.97
2022-09-23T09:50:09.310Z,3.55
2022-09-23T09:51:43.075Z,4.75
2022-09-23T09:53:26.371Z,5.38
2022-09-23T09:55:13.574Z,3.83
2022-09-23T09:58:18.271Z,3.15
2022-09-23T09:59:50.349Z,3.53
2022-09-23T10:01:29.620Z,4.28
2022-09-23T10:03:19.912Z,2.83
2022-09-23T10:05:01.943Z,5.45
2022-09-23T10:06:36.117Z,3.38
2022-09-23T10:08:27.327Z,4.20
2022-09-23T10:10:22.447Z,3.88
2022-09-23T10:14:03.227Z,5.78
2022-09-23T10:15:45.026Z,3.72
2022-09-23T10:17:28.348Z,4.15
2022-09-23T10:19:01.967Z,4.13
2022-09-23T10:20:38.395Z,5.75
2022-09-23T10:22:26.733Z,5.32
2022-09-23T10:23:59.020Z,4.75
2022-09-23T10:25:31.466Z,4.93
2022-09-23T10:27:12.483Z,4.60
2022-09-23T10:28:56.081Z,3.42
2022-09-23T10:30:29.301Z,5.22
2022-09-23T10:32:36.699Z,5.15
2022-09-23T10:34:31.981Z,5.72
2022-09-23T10:36:11.740Z,5.03
2022-09-23T10:37:50.001Z,3.95
2022-09-23T10:39:40.489Z,3.80
2022-09-23T10:41:44.729Z,3.55
2022-09-23T10:44:07.496Z,3.67
2022-09-23T10:45:59.398Z,4.43
2022-09-23T10:47:37.067Z,3.67
2022-09-23T10:49:46.690Z,3.97
2022-09-23T10:51:51.776Z,3.88
2022-09-23T10:53:42.524Z,5.45
2022-09-23T10:55:34.446Z,3.10
2022-09-23T10:57:42.179Z,6.90
2022-09-23T10:59:51.248Z,7.03
2022-09-23T11:01:41.628Z,2.80
2022-09-23T11:03:19.805Z,3.55
2022-09-23T11:05:14.908Z,7.53
2022-09-23T11:07:14.584Z,5.13
2022-09-23T11:08:53.360Z,6.55
2022-09-23T11:10:48.977Z,5.05
2022-09-23T11:12:31.595Z,4.22
2022-09-23T11:14:16.364Z,5.10
2022-09-23T11:16:07.124Z,4.90
2022-09-23T11:18:03.554Z,4.05
2022-09-23T11:19:54.386Z,4.53
2022-09-23T11:21:40.269Z,5.07
2022-09-23T11:23:33.228Z,3.35
2022-09-23T11:25:21.585Z,8.63
2022-09-23T11:27:12.087Z,4.05
2022-09-23T11:29:14.728Z,3.88
2022-09-23T11:30:49.994Z,5.03
2022-09-23T11:32:51.652Z,5.95
2022-09-23T11:34:35.761Z,4.03
2022-09-23T11:38:07.610Z,5.00
2022-09-23T11:40:01.557Z,5.38
2022-09-23T11:41:36.825Z,4.60
2022-09-23T11:43:35.605Z,4.35
2022-09-23T11:45:19.487Z,4.18
2022-09-23T11:48:41.762Z,3.67
2022-09-23T11:50:27.894Z,4.88
2022-09-23T11:52:24.303Z,3.15
2022-09-23T11:54:02.461Z,4.20
2022-09-23T11:55:54.733Z,6.35
2022-09-23T11:57:47.727Z,4.80
2022-09-23T11:59:41.160Z,3.45
2022-09-23T12:01:37.353Z,4.88
2022-09-23T12:03:57.203Z,4.30
2022-09-23T12:05:40.370Z,7.65
2022-09-23T12:07:17.511Z,14.48
2022-09-23T12:08:57.962Z,8.95
2022-09-23T12:12:49.412Z,7.25
2022-09-23T12:14:39.978Z,5.93
2022-09-23T12:16:51.063Z,7.43
2022-09-23T12:18:44.131Z,5.47
2022-09-23T12:20:34.560Z,5.53
2022-09-23T12:22:12.581Z,4.75
2022-09-23T12:23:44.946Z,4.00
2022-09-23T12:25:27.205Z,3.80
2022-09-23T12:27:02.519Z,4.25
2022-09-23T12:28:39.151Z,5.15
2022-09-23T12:30:20.753Z,5.50
2022-09-23T12:31:53.427Z,4.20
2022-09-23T12:33:30.662Z,2.88
2022-09-23T12:35:03.201Z,4.13
2022-09-23T12:36:36.759Z,3.50
2022-09-23T12:38:33.957Z,3.72
2022-09-23T12:40:19.567Z,5.20
2022-09-23T12:41:58.795Z,5.80
2022-09-23T12:43:35.927Z,4.78
2022-09-23T12:45:44.431Z,2.92
2022-09-23T12:47:25.489Z,3.45
2022-09-23T12:49:02.792Z,4.53
2022-09-23T12:50:53.234Z,3.65
2022-09-23T12:52:33.927Z,3.53
2022-09-23T12:54:06.224Z,6.13
2022-09-23T12:55:41.962Z,4.75
2022-09-23T12:57:35.387Z,5.38
2022-09-23T12:59:16.828Z,2.73
2022-09-23T13:01:19.952Z,4.35
2022-09-23T13:03:18.867Z,4.75
2022-09-23T13:05:22.801Z,4.38
2022-09-23T13:07:17.501Z,4.13
2022-09-23T13:08:50.306Z,3.95
2022-09-23T13:10:33.244Z,4.97
2022-09-23T13:12:09.385Z,3.50
2022-09-23T13:13:44.007Z,4.72
2022-09-23T13:15:39.083Z,4.93
2022-09-23T13:17:37.656Z,4.57
2022-09-23T13:19:28.457Z,3.45
2022-09-23T13:23:04.660Z,2.70
2022-09-23T13:24:42.694Z,4.05
2022-09-23T13:26:15.764Z,4.63
2022-09-23T13:27:51.290Z,4.53
2022-09-23T13:30:05.109Z,4.90
2022-09-23T13:31:38.203Z,3.65
2022-09-23T13:33:17.589Z,5.78
2022-09-23T13:35:17.519Z,4.25
2022-09-23T13:36:50.117Z,4.35
2022-09-23T13:38:30.180Z,3.53
2022-09-23T13:40:09.824Z,3.47
2022-09-23T13:41:44.023Z,3.55
2022-09-23T13:43:43.538Z,3.47
2022-09-23T13:45:18.496Z,4.30
2022-09-23T13:46:58.571Z,3.72
2022-09-23T13:48:31.041Z,4.30
2022-09-23T13:51:36.565Z,4.00
2022-09-23T13:53:11.809Z,4.30
2022-09-23T13:54:49.780Z,3.53
2022-09-23T13:56:23.360Z,3.97
2022-09-23T13:58:21.844Z,3.60
2022-09-23T13:59:54.172Z,3.83
2022-09-23T14:01:34.486Z,4.60
2022-09-23T14:03:31.247Z,4.00
2022-09-23T14:05:25.183Z,3.92
2022-09-23T14:06:57.688Z,4.68
2022-09-23T14:08:30.757Z,4.68
2022-09-23T14:10:06.039Z,3.78
2022-09-23T14:11:38.250Z,4.30
2022-09-23T14:13:34.196Z,5.57
2022-09-23T14:15:07.445Z,4.75
2022-09-23T14:16:41.435Z,5.97
2022-09-23T14:18:19.636Z,3.70
2022-09-23T14:19:52.294Z,3.50
2022-09-23T14:21:39.890Z,4.70
2022-09-23T14:23:15.128Z,3.33
2022-09-23T14:24:47.443Z,3.78
2022-09-23T14:26:20.195Z,3.47
2022-09-23T14:27:52.523Z,3.45
2022-09-23T14:29:27.373Z,3.83
2022-09-23T14:30:59.951Z,4.03
2022-09-23T14:32:33.044Z,3.90
2022-09-23T14:34:05.527Z,2.40
2022-09-23T14:35:43.487Z,4.03
2022-09-23T14:37:42.928Z,4.47
2022-09-23T14:39:16.594Z,4.35
2022-09-23T14:40:54.124Z,4.22
2022-09-23T14:42:28.284Z,4.15
2022-09-23T14:44:02.082Z,5.28
2022-09-23T14:45:36.807Z,3.95
2022-09-23T14:47:14.837Z,4.93
2022-09-23T14:49:13.368Z,4.55
2022-09-23T14:51:02.484Z,8.15
2022-09-23T14:52:35.327Z,9.85
2022-09-23T14:54:32.820Z,5.55
2022-09-23T14:56:08.139Z,4.75
2022-09-23T14:57:40.736Z,5.25
2022-09-23T14:59:38.865Z,7.45
2022-09-23T15:01:33.494Z,5.82
2022-09-23T15:03:21.584Z,7.82
2022-09-23T15:05:09.119Z,10.30
2022-09-23T15:06:47.349Z,8.95
2022-09-23T15:08:22.633Z,7.35
2022-09-23T15:09:55.406Z,5.35
2022-09-23T15:11:30.859Z,5.70
2022-09-23T15:13:14.924Z,4.10
2022-09-23T15:14:55.070Z,4.70
2022-09-23T15:16:30.540Z,5.05
2022-09-23T15:18:08.250Z,9.20
2022-09-23T15:19:40.957Z,6.10
2022-09-23T15:21:16.012Z,6.70
2022-09-23T15:22:50.822Z,5.07
2022-09-23T15:24:53.356Z,6.57
2022-09-23T15:26:37.725Z,5.25
2022-09-23T15:28:12.878Z,4.70
2022-09-23T15:29:45.232Z,6.57
2022-09-23T15:31:19.976Z,7.28
2022-09-23T15:32:52.313Z,7.25
2022-09-23T15:34:24.573Z,5.65
2022-09-23T15:35:57.770Z,4.70
2022-09-23T15:37:35.484Z,5.65
2022-09-23T15:39:11.288Z,5.43
2022-09-23T15:40:43.608Z,5.13
2022-09-23T15:42:16.801Z,6.57
2022-09-23T15:43:49.179Z,4.93
2022-09-23T15:45:44.439Z,5.53
2022-09-23T15:47:21.896Z,6.20
2022-09-23T15:49:01.357Z,5.90
2022-09-23T15:50:35.701Z,8.60
2022-09-23T15:52:10.708Z,13.63
2022-09-23T15:53:43.103Z,8.52
2022-09-23T15:55:22.257Z,7.10
2022-09-23T15:56:54.759Z,10.90
2022-09-23T15:58:28.165Z,6.38
2022-09-23T16:01:34.541Z,7.00
2022-09-23T16:03:07.068Z,6.50
2022-09-23T16:04:39.384Z,6.50
2022-09-23T16:06:13.873Z,9.30
2022-09-23T16:07:49.686Z,8.75
2022-09-23T16:09:22.257Z,6.38
2022-09-23T16:10:55.548Z,6.15
2022-09-23T16:12:28.264Z,7.00
2022-09-23T16:14:03.788Z,6.45
2022-09-23T16:15:36.291Z,5.97
2022-09-23T16:17:09.851Z,6.13
2022-09-23T16:18:44.171Z,6.35
2022-09-23T16:20:18.088Z,6.05
2022-09-23T16:21:50.491Z,6.10
2022-09-23T16:23:39.074Z,6.68
2022-09-23T16:25:13.005Z,6.25
2022-09-23T16:26:47.360Z,7.22
2022-09-23T16:28:20.568Z,6.28
2022-09-23T16:29:53.099Z,7.28
2022-09-23T16:31:27.585Z,6.63
2022-09-23T16:33:01.240Z,7.65
2022-09-23T16:34:35.259Z,8.30
2022-09-23T16:36:12.688Z,7.43
2022-09-23T16:37:47.440Z,8.02
2022-09-23T16:39:20.906Z,8.90
2022-09-23T16:40:53.970Z,8.85
2022-09-23T16:42:26.350Z,8.57
2022-09-23T16:44:01.019Z,10.10
2022-09-23T16:45:33.523Z,8.43
2022-09-23T16:47:06.147Z,7.93
2022-09-23T16:48:42.086Z,9.75
2022-09-23T16:50:16.034Z,8.60
2022-09-23T16:51:48.587Z,8.88
2022-09-23T16:53:21.025Z,11.35
2022-09-23T16:54:54.337Z,10.82
2022-09-23T16:56:29.224Z,10.25
2022-09-23T16:58:01.839Z,9.20
2022-09-23T16:59:54.111Z,8.95
2022-09-23T17:01:49.617Z,8.85
2022-09-23T17:03:40.319Z,8.93
2022-09-23T17:06:52.976Z,8.35
2022-09-23T17:08:25.377Z,8.35
2022-09-23T17:09:58.413Z,9.35
2022-09-23T17:11:33.967Z,8.55
2022-09-23T17:13:08.494Z,8.02
2022-09-23T17:14:40.955Z,7.32
2022-09-23T17:16:29.148Z,6.30
2022-09-23T17:18:01.919Z,7.25
2022-09-23T17:19:35.147Z,7.07
2022-09-23T17:21:08.765Z,7.38
2022-09-23T17:22:42.130Z,6.65
2022-09-23T17:25:50.036Z,7.13
2022-09-23T17:27:22.411Z,7.25
2022-09-23T17:28:56.187Z,7.30
2022-09-23T17:30:29.227Z,6.50
2022-09-23T17:32:01.680Z,8.30
2022-09-23T17:33:38.354Z,5.90
2022-09-23T17:35:11.756Z,6.53
2022-09-23T17:38:16.208Z,5.65
2022-09-23T17:39:49.113Z,5.90
2022-09-23T17:41:22.019Z,6.30
2022-09-23T17:42:54.269Z,7.78
2022-09-23T17:44:26.907Z,5.97
2022-09-23T17:46:08.116Z,5.57
2022-09-23T17:47:43.399Z,5.93
2022-09-23T17:49:16.084Z,6.65
2022-09-23T17:50:58.705Z,6.53
2022-09-23T17:52:31.108Z,7.28
2022-09-23T17:54:03.336Z,6.90
2022-09-23T17:55:35.634Z,8.00
2022-09-23T17:57:08.449Z,6.75
2022-09-23T17:58:40.711Z,7.32
2022-09-23T18:00:13.525Z,7.32
2022-09-23T18:01:45.979Z,8.23
2022-09-23T18:03:22.956Z,8.27
2022-09-23T18:04:55.448Z,7.22
2022-09-23T18:06:32.255Z,7.10
2022-09-23T18:08:06.092Z,7.85
2022-09-23T18:09:38.454Z,7.38
2022-09-23T18:11:15.471Z,9.00
2022-09-23T18:12:47.895Z,7.93
2022-09-23T18:14:22.559Z,8.23
2022-09-23T18:15:54.944Z,9.02
2022-09-23T18:17:27.370Z,7.78
2022-09-23T18:19:01.534Z,8.20
2022-09-23T18:20:38.136Z,8.50
2022-09-23T18:22:10.853Z,7.28
2022-09-23T18:23:46.919Z,7.30
2022-09-23T18:25:38.049Z,8.18
2022-09-23T18:27:11.333Z,7.88
2022-09-23T18:28:44.033Z,9.13
2022-09-23T18:30:17.515Z,7.35
2022-09-23T18:34:55.765Z,7.53
2022-09-23T18:36:29.496Z,6.70
2022-09-23T18:38:02.904Z,7.20
2022-09-23T18:41:07.684Z,7.72
2022-09-23T18:42:40.754Z,7.80
2022-09-23T18:44:13.039Z,8.35
2022-09-23T18:45:56.231Z,8.73
2022-09-23T18:47:47.574Z,7.60
2022-09-23T18:49:38.754Z,7.50
2022-09-23T18:51:14.878Z,7.80
2022-09-23T18:52:48.565Z,9.57
2022-09-23T18:54:22.940Z,8.50
2022-09-23T18:55:55.282Z,6.97
2022-09-23T18:57:27.376Z,7.55
2022-09-23T18:58:59.747Z,7.10
2022-09-23T19:00:32.049Z,7.85
2022-09-23T19:02:04.528Z,8.00
2022-09-23T19:03:37.385Z,7.55
2022-09-23T19:05:12.663Z,8.55
2022-09-23T19:06:45.068Z,8.20
2022-09-23T19:08:19.194Z,8.23
2022-09-23T19:09:51.307Z,8.95
2022-09-23T19:11:25.211Z,8.15
2022-09-23T19:12:57.320Z,9.02
2022-09-23T19:14:29.518Z,10.57
2022-09-23T19:16:15.469Z,8.25
2022-09-23T19:17:47.616Z,8.68
2022-09-23T19:19:21.134Z,7.70
2022-09-23T19:22:26.066Z,8.35
2022-09-23T19:24:03.936Z,8.17
2022-09-23T19:25:37.206Z,8.07
2022-09-23T19:27:09.927Z,7.95
2022-09-23T19:28:41.975Z,9.63
2022-09-23T19:30:14.475Z,8.52
2022-09-23T19:31:46.776Z,9.23
2022-09-23T19:33:18.841Z,7.75
2022-09-23T19:34:50.816Z,7.63
2022-09-23T19:36:32.899Z,9.27
2022-09-23T19:38:05.218Z,7.70
2022-09-23T19:39:38.013Z,7.68
2022-09-23T19:41:11.537Z,6.90
2022-09-23T19:44:16.895Z,8.82
2022-09-23T19:45:55.515Z,6.85
2022-09-23T19:47:27.847Z,7.15
2022-09-23T19:49:00.811Z,6.97
2022-09-23T19:50:35.039Z,7.63
2022-09-23T19:52:07.210Z,7.47
2022-09-23T19:53:39.272Z,7.47
2022-09-23T19:55:11.245Z,7.55
2022-09-23T19:56:43.638Z,6.35
2022-09-23T19:58:18.943Z,7.82
2022-09-23T19:59:51.074Z,6.25
2022-09-23T20:01:24.154Z,7.45
2022-09-23T20:02:57.278Z,7.47
2022-09-23T20:04:29.602Z,6.65
2022-09-23T20:06:02.076Z,6.15
2022-09-23T20:09:07.353Z,7.47
2022-09-23T20:10:40.331Z,7.00
2022-09-23T20:12:13.382Z,6.95
2022-09-23T20:13:50.452Z,7.88
2022-09-23T20:15:23.598Z,7.50
2022-09-23T20:16:55.713Z,7.57
2022-09-23T20:18:27.809Z,7.00
2022-09-23T20:20:00.538Z,8.77
2022-09-23T20:21:33.910Z,9.52
2022-09-23T20:24:39.013Z,8.15
2022-09-23T20:26:30.107Z,7.65
2022-09-23T20:28:02.678Z,7.60
2022-09-23T20:29:34.818Z,7.33
2022-09-23T20:31:06.945Z,7.57
2022-09-23T20:32:43.951Z,7.00
2022-09-23T20:34:16.734Z,6.65
2022-09-23T20:35:51.514Z,9.82
2022-09-23T20:37:24.787Z,6.43
2022-09-23T20:38:59.987Z,7.63
2022-09-23T20:40:34.842Z,7.07
2022-09-23T20:42:09.691Z,7.03
2022-09-23T20:43:41.965Z,7.25
2022-09-23T20:45:13.953Z,6.57
2022-09-23T20:46:48.800Z,6.97
2022-09-23T20:48:21.903Z,8.20
2022-09-23T20:49:54.321Z,7.07
2022-09-23T20:51:26.589Z,11.57
2022-09-23T20:52:58.591Z,8.30
2022-09-23T20:54:33.422Z,7.05
2022-09-23T20:56:06.292Z,7.38
2022-09-23T20:57:38.267Z,8.85
2022-09-23T20:59:11.109Z,8.88
2022-09-23T21:00:44.822Z,11.27
2022-09-23T21:02:16.943Z,12.95
2022-09-23T21:03:50.460Z,12.57
2022-09-23T21:06:57.885Z,9.10
2022-09-23T21:08:31.525Z,10.35
2022-09-23T21:10:07.106Z,10.50
2022-09-23T21:11:39.150Z,10.73
2022-09-23T21:13:11.143Z,10.93
2022-09-23T21:14:43.128Z,10.88
2022-09-23T21:16:16.345Z,8.60
2022-09-23T21:17:48.556Z,9.07
2022-09-23T21:19:20.994Z,8.48
2022-09-23T21:21:00.093Z,8.25
2022-09-23T21:22:32.736Z,8.70
2022-09-23T21:24:36.008Z,8.80
2022-09-23T21:26:04.592Z,9.45
2022-09-23T21:27:37.551Z,7.38
2022-09-23T21:29:16.959Z,9.02
2022-09-23T21:30:51.952Z,9.57
2022-09-23T21:32:24.379Z,9.75
2022-09-23T21:34:03.464Z,7.63
2022-09-23T21:35:42.828Z,7.63
2022-09-23T21:37:14.996Z,6.65
2022-09-23T21:38:47.086Z,6.70
2022-09-23T21:40:37.797Z,8.45
2022-09-23T21:42:11.507Z,6.75
2022-09-23T21:43:43.689Z,8.05
2022-09-23T21:45:15.714Z,6.68
2022-09-23T21:46:47.769Z,7.80
2022-09-23T21:48:19.763Z,6.30
2022-09-23T21:49:52.147Z,7.30
2022-09-23T21:51:26.544Z,7.00
2022-09-23T21:52:58.738Z,6.07
2022-09-23T21:54:32.323Z,7.70
2022-09-23T21:56:06.521Z,7.45
2022-09-23T21:57:38.654Z,7.50
2022-09-23T21:59:11.026Z,7.28
2022-09-23T22:00:44.290Z,7.22
2022-09-23T22:03:56.214Z,9.50
2022-09-23T22:05:28.414Z,7.00
2022-09-23T22:07:00.919Z,6.80
2022-09-23T22:08:37.154Z,7.70
2022-09-23T22:10:09.529Z,7.85
2022-09-23T22:12:01.143Z,6.22
2022-09-23T22:13:33.197Z,7.32
2022-09-23T22:15:07.285Z,6.63
2022-09-23T22:16:40.218Z,6.80
2022-09-23T22:18:12.386Z,7.45
2022-09-23T22:19:47.138Z,7.30
2022-09-23T22:21:22.049Z,8.90
2022-09-23T22:22:54.209Z,6.63
2022-09-23T22:24:26.300Z,6.95
2022-09-23T22:26:02.924Z,9.15
2022-09-23T22:27:55.306Z,7.00
2022-09-23T22:29:45.944Z,7.47
2022-09-23T22:31:36.316Z,8.20
2022-09-23T22:33:09.358Z,6.88
2022-09-23T22:34:50.961Z,7.30
2022-09-23T22:36:23.887Z,7.47
2022-09-23T22:37:56.188Z,7.70
2022-09-23T22:39:29.817Z,8.18
2022-09-23T22:41:02.127Z,8.05
2022-09-23T22:42:34.948Z,7.38
2022-09-23T22:44:07.107Z,8.52
2022-09-23T22:45:39.943Z,7.28
2022-09-23T22:47:11.929Z,7.78
2022-09-23T22:48:44.550Z,7.57
2022-09-23T22:50:16.630Z,7.30
2022-09-23T22:51:48.637Z,7.65
2022-09-23T22:53:20.672Z,7.00
2022-09-23T22:54:53.151Z,6.25
2022-09-23T22:56:25.140Z,7.95
2022-09-23T22:57:57.273Z,7.03
2022-09-23T22:59:29.306Z,6.93
2022-09-23T23:01:02.846Z,6.80
2022-09-23T23:04:08.532Z,7.13
2022-09-23T23:05:40.893Z,6.88
2022-09-23T23:07:15.001Z,6.93
2022-09-23T23:08:47.352Z,6.05
2022-09-23T23:11:58.741Z,5.95
2022-09-23T23:13:34.589Z,5.95
2022-09-23T23:15:07.316Z,8.60
2022-09-23T23:16:39.654Z,6.72
2022-09-23T23:18:12.556Z,7.43
2022-09-23T23:19:44.606Z,7.32
2022-09-23T23:21:18.863Z,6.30
2022-09-23T23:22:50.941Z,7.05
2022-09-23T23:24:24.528Z,7.05
2022-09-23T23:25:56.524Z,7.40
2022-09-23T23:27:28.462Z,6.38
2022-09-23T23:29:02.129Z,6.35
2022-09-23T23:30:35.296Z,6.95
2022-09-23T23:32:08.009Z,7.05
2022-09-23T23:33:40.576Z,6.70
2022-09-23T23:35:12.685Z,8.60
2022-09-23T23:36:46.038Z,5.97
2022-09-23T23:38:18.050Z,10.18
2022-09-23T23:39:50.103Z,7.25